EW2910 Weather Reports


Display with metric or nautical units.
time (UTC)temp
F
wind
direction
speed
MPH
gust
MPH
rain 1hr
in
rain 24hr
in
rain mn
in
humidity
%
barometer
mb
20220924233110 80 87 3.0 8.0 0.00 0.00 0.00 66 1014.5
20220924231600 81 60 5.0 12.0 0.00 0.00 0.00 61 1014.3
20220924230106 82 50 5.0 10.0 0.00 0.00 0.00 58 1014.1
20220924224608 83 62 6.0 11.0 0.00 0.00 0.00 56 1014.0
20220924223120 84 72 6.0 12.0 0.00 0.00 0.00 55 1013.9
20220924221600 85 91 6.0 13.0 0.00 0.00 0.00 55 1013.9
20220924220104 85 53 6.0 11.0 0.00 0.00 0.00 56 1013.8
20220924214618 86 37 5.0 10.0 0.00 0.03 0.00 54 1013.9
20220924213141 86 47 9.0 14.0 0.00 0.03 0.00 54 1013.8
20220924211602 86 56 7.0 12.0 0.00 0.03 0.00 53 1013.7
20220924210102 86 48 6.0 10.0 0.00 0.03 0.00 55 1013.7
20220924204600 86 40 5.0 10.0 0.00 0.07 0.00 54 1013.8
20220924203114 86 61 4.0 10.0 0.00 0.07 0.00 55 1014.0
20220924201559 85 40 6.0 12.0 0.00 0.07 0.00 57 1014.2
20220924200102 89 58 4.0 9.0 0.00 0.07 0.00 55 1014.2
20220924194601 88 46 5.0 10.0 0.00 0.45 0.00 52 1014.5
20220924193106 88 329 6.0 10.0 0.00 0.45 0.00 56 1014.6
20220924191631 88 122 3.0 11.0 0.00 0.45 0.00 53 1014.7
20220924190122 87 342 3.0 9.0 0.00 0.45 0.00 53 1015.0
20220924184614 88 325 3.0 10.0 0.00 0.45 0.00 53 1015.1
20220924183144 87 44 3.0 8.0 0.00 0.45 0.00 56 1015.3
20220924181638 85 42 6.0 11.0 0.00 0.45 0.00 59 1015.4
20220924180123 86 51 3.0 10.0 0.00 0.45 0.00 58 1015.6
20220924174604 86 309 5.0 9.0 0.00 0.45 0.00 60 1015.8
20220924173103 86 45 3.0 10.0 0.00 0.45 0.00 62 1016.1
20220924171613 84 51 5.0 10.0 0.00 0.45 0.00 64 1016.2
20220924170103 85 89 4.0 9.0 0.00 0.45 0.00 62 1016.3
20220924164606 84 95 4.0 7.0 0.00 0.45 0.00 66 1016.3
20220924163059 84 155 5.0 9.0 0.00 0.45 0.00 66 1016.6
20220924161613 84 44 4.0 13.0 0.00 0.45 0.00 68 1016.7
20220924160118 84 55 4.0 12.0 0.00 0.45 0.00 68 1016.8
20220924154733 83 57 4.0 8.0 0.00 0.45 0.00 69 1017.0
20220924153100 83 60 3.0 9.0 0.00 0.45 0.00 69 1017.1
20220924151602 81 78 6.0 12.0 0.00 0.45 0.00 71 1017.1
20220924150059 81 47 5.0 11.0 0.00 0.45 0.00 72 1016.9
20220924144622 82 56 5.0 13.0 0.00 0.45 0.00 72 1016.9
20220924143125 82 65 6.0 11.0 0.00 0.45 0.00 72 1017.0
20220924141604 81 60 8.0 15.0 0.00 0.45 0.00 73 1016.8
20220924140102 81 79 5.0 13.0 0.00 0.45 0.00 75 1016.8
20220924134601 80 70 6.0 13.0 0.00 0.45 0.00 76 1016.8
20220924133101 80 60 6.0 12.0 0.00 0.45 0.00 78 1016.6
20220924131612 79 110 6.0 12.0 0.00 0.45 0.00 80 1016.7
20220924130101 78 64 5.0 10.0 0.00 0.45 0.00 81 1016.5
20220924124604 77 59 6.0 9.0 0.00 0.45 0.00 84 1016.5
20220924123127 76 46 4.0 6.0 0.00 0.45 0.00 87 1016.4
20220924121603 75 32 2.0 4.0 0.00 0.45 0.00 90 1016.2
20220924120101 74 49 2.0 3.0 0.00 0.45 0.00 92 1015.9
20220924114623 72 47 1.0 3.0 0.00 0.45 0.00 93 1015.7
20220924113147 72 0 0.0 0.0 0.00 0.45 0.00 94 1015.6
20220924111559 72 0 0.0 0.0 0.00 0.45 0.00 94 1015.6
20220924110112 72 0 0.0 2.0 0.00 0.45 0.00 94 1015.4
20220924104600 72 0 0.0 3.0 0.00 0.45 0.00 94 1015.3
20220924103059 72 6 0.0 1.0 0.00 0.45 0.00 95 1015.3
20220924101618 72 49 0.0 2.0 0.00 0.45 0.00 94 1015.3
20220924100126 72 47 0.0 2.0 0.00 0.45 0.00 94 1015.1
20220924094559 72 41 1.0 4.0 0.00 0.45 0.00 93 1015.2
20220924093104 73 50 2.0 4.0 0.00 0.45 0.00 92 1015.2
20220924091628 73 49 1.0 2.0 0.00 0.45 0.00 92 1015.2
20220924090102 73 45 1.0 3.0 0.00 0.45 0.00 92 1015.1
20220924084559 73 43 0.0 2.0 0.00 0.45 0.00 92 1015.2
20220924083102 73 38 0.0 3.0 0.00 0.45 0.00 92 1015.3
20220924081619 74 45 1.0 3.0 0.00 0.45 0.00 92 1015.3
20220924080101 74 52 2.0 4.0 0.00 0.45 0.00 92 1015.4
20220924074601 74 49 1.0 3.0 0.00 0.45 0.00 91 1015.5
20220924073101 75 54 2.0 5.0 0.00 0.45 0.00 91 1015.7
20220924071622 74 68 1.0 4.0 0.00 0.45 0.00 91 1015.5
20220924070103 75 41 3.0 6.0 0.00 0.45 0.00 91 1015.7
20220924064614 75 48 3.0 6.0 0.00 0.45 0.00 92 1015.8
20220924063102 75 47 5.0 8.0 0.00 0.45 0.00 91 1015.8
20220924061608 75 58 3.0 5.0 0.00 0.45 0.00 93 1015.9
20220924060103 75 50 2.0 4.0 0.00 0.45 0.00 93 1016.1
20220924054601 75 48 2.0 4.0 0.00 0.45 0.00 93 1016.2
20220924053140 75 53 2.0 4.0 0.00 0.45 0.00 93 1016.2
20220924051605 75 50 2.0 4.0 0.00 0.45 0.00 93 1016.2
20220924050104 75 50 2.0 4.0 0.00 0.45 0.00 93 1016.2
20220924044613 75 52 3.0 5.0 0.00 0.45 0.00 92 1016.2
20220924043101 76 63 3.0 5.0 0.00 0.45 0.00 92 1016.2
20220924041602 76 49 3.0 6.0 0.00 0.45 0.00 92 1016.2
20220924040106 76 72 2.0 5.0 0.00 0.45 0.00 92 1016.1
20220924034609 76 46 1.0 3.0 0.00 0.45 0.45 92 1016.0
20220924033100 76 51 1.0 3.0 0.00 0.45 0.45 91 1016.1
20220924031600 77 0 1.0 5.0 0.00 0.45 0.45 90 1016.1
20220924030105 77 57 3.0 6.0 0.00 0.45 0.45 90 1016.0
20220924024616 77 37 4.0 11.0 0.00 0.45 0.45 90 1015.9
20220924023111 77 42 5.0 9.0 0.00 0.45 0.45 90 1015.7
20220924021606 77 57 3.0 6.0 0.00 0.45 0.45 90 1015.7
20220924020103 78 51 4.0 8.0 0.00 0.45 0.45 90 1015.7
20220924014608 78 55 4.0 10.0 0.00 0.45 0.45 89 1015.4
20220924013109 78 56 7.0 14.0 0.00 0.45 0.45 88 1015.3
20220924011601 78 60 5.0 9.0 0.00 0.45 0.45 88 1015.0
20220924010101 78 46 3.0 6.0 0.00 0.45 0.45 90 1015.1
20220924004621 78 51 2.0 4.0 0.00 0.45 0.45 89 1014.8
20220924003134 78 52 2.0 4.0 0.00 0.45 0.45 89 1014.5
20220924001603 79 49 0.0 4.0 0.00 0.45 0.45 89 1014.2
20220924000115 79 60 2.0 5.0 0.00 0.45 0.45 88 1013.8
20220923234558 80 49 2.0 4.0 0.00 0.45 0.45 88 1013.8